createdAt,value
2022-12-29T00:01:40.617Z,99802.72
2022-12-29T00:04:12.843Z,99800.84
2022-12-29T00:06:41.695Z,99808.66
2022-12-29T00:09:08.065Z,99803.47
2022-12-29T00:11:34.692Z,99801.03
2022-12-29T00:14:25.655Z,99789.41
2022-12-29T00:16:52.645Z,99779.59
2022-12-29T00:19:38.375Z,99787.97
2022-12-29T00:22:23.378Z,99790.13
2022-12-29T00:25:08.470Z,99786.56
2022-12-29T00:27:53.516Z,99778.44
2022-12-29T00:30:40.743Z,99768.88
2022-12-29T00:33:39.969Z,99770.75
2022-12-29T00:36:16.375Z,99769.97
2022-12-29T00:39:07.130Z,99760.34
2022-12-29T00:41:51.946Z,99765.97
2022-12-29T00:44:18.729Z,99755.53
2022-12-29T00:46:45.403Z,99750.50
2022-12-29T00:49:32.344Z,99747.88
2022-12-29T00:52:00.188Z,99752.22
2022-12-29T00:54:30.484Z,99743.84
2022-12-29T00:56:57.313Z,99745.22
2022-12-29T00:59:25.145Z,99731.09
2022-12-29T01:01:53.296Z,99724.44
2022-12-29T01:04:22.129Z,99709.91
2022-12-29T01:06:49.099Z,99712.31
2022-12-29T01:09:36.034Z,99699.03
2022-12-29T01:12:03.820Z,99712.31
2022-12-29T01:14:30.566Z,99708.16
2022-12-29T01:16:57.573Z,99713.72
2022-12-29T01:19:24.515Z,99719.16
2022-12-29T01:21:51.658Z,99717.66
2022-12-29T01:24:21.186Z,99718.09
2022-12-29T01:26:49.431Z,99704.91
2022-12-29T01:29:17.362Z,99708.94
2022-12-29T01:31:46.466Z,99707.25
2022-12-29T01:34:14.055Z,99713.94
2022-12-29T01:36:40.625Z,99695.31
2022-12-29T01:39:07.063Z,99689.53
2022-12-29T01:41:34.087Z,99692.53
2022-12-29T01:44:02.601Z,99691.13
2022-12-29T01:46:48.751Z,99688.13
2022-12-29T01:49:20.557Z,99683.66
2022-12-29T01:51:53.016Z,99677.34
2022-12-29T01:54:40.515Z,99671.75
2022-12-29T01:57:13.382Z,99673.47
2022-12-29T01:59:48.233Z,99677.34
2022-12-29T02:02:14.879Z,99670.47
2022-12-29T02:04:46.708Z,99662.25
2022-12-29T02:07:23.711Z,99655.09
2022-12-29T02:09:52.238Z,99654.16
2022-12-29T02:12:21.778Z,99653.44
2022-12-29T02:14:52.662Z,99641.47
2022-12-29T02:17:54.418Z,99645.13
2022-12-29T02:20:33.070Z,99656.69
2022-12-29T02:23:25.432Z,99655.22
2022-12-29T02:26:16.575Z,99642.25
2022-12-29T02:29:33.962Z,99640.19
2022-12-29T02:32:33.796Z,99638.66
2022-12-29T02:35:36.132Z,99646.81
2022-12-29T02:38:19.058Z,99643.00
2022-12-29T02:41:08.492Z,99631.34
2022-12-29T02:43:47.139Z,99627.31
2022-12-29T02:46:22.092Z,99628.00
2022-12-29T02:49:23.568Z,99627.00
2022-12-29T02:52:03.891Z,99631.19
2022-12-29T02:54:43.357Z,99630.75
2022-12-29T02:57:22.079Z,99632.16
2022-12-29T02:59:57.695Z,99638.31
2022-12-29T03:02:46.121Z,99637.28
2022-12-29T03:05:29.903Z,99631.34
2022-12-29T03:08:11.654Z,99636.84
2022-12-29T03:11:03.065Z,99628.13
2022-12-29T03:14:12.326Z,99633.19
2022-12-29T03:16:53.209Z,99619.13
2022-12-29T03:19:37.019Z,99619.06
2022-12-29T03:22:27.811Z,99609.00
2022-12-29T03:25:11.193Z,99603.28
2022-12-29T03:27:43.160Z,99608.00
2022-12-29T03:30:10.613Z,99606.38
2022-12-29T03:32:43.569Z,99597.53
2022-12-29T03:35:16.491Z,99601.91
2022-12-29T03:37:51.013Z,99603.06
2022-12-29T03:40:18.897Z,99592.16
2022-12-29T03:42:47.639Z,99588.00
2022-12-29T03:45:14.607Z,99574.16
2022-12-29T03:47:42.230Z,99569.03
2022-12-29T03:50:09.561Z,99567.19
2022-12-29T03:52:39.947Z,99565.06
2022-12-29T03:55:07.246Z,99571.06
2022-12-29T03:57:33.938Z,99578.97
2022-12-29T04:00:06.874Z,99581.16
2022-12-29T04:02:42.207Z,99568.81
2022-12-29T04:05:12.059Z,99567.31
2022-12-29T04:07:38.536Z,99572.91
2022-12-29T04:10:05.766Z,99558.88
2022-12-29T04:12:34.398Z,99560.13
2022-12-29T04:15:02.626Z,99554.72
2022-12-29T04:17:29.397Z,99567.97
2022-12-29T04:20:15.930Z,99547.13
2022-12-29T04:22:43.375Z,99562.91
2022-12-29T04:25:10.117Z,99554.47
2022-12-29T04:27:36.996Z,99554.28
2022-12-29T04:30:22.280Z,99558.44
2022-12-29T04:33:08.996Z,99563.81
2022-12-29T04:35:35.638Z,99552.50
2022-12-29T04:38:03.807Z,99566.19
2022-12-29T04:40:30.631Z,99548.06
2022-12-29T04:42:57.101Z,99555.19
2022-12-29T04:45:24.820Z,99555.19
2022-12-29T04:47:57.709Z,99545.41
2022-12-29T04:50:59.310Z,99552.81
2022-12-29T04:53:28.651Z,99556.22
2022-12-29T04:55:55.256Z,99553.50
2022-12-29T04:58:23.290Z,99554.53
2022-12-29T05:00:52.864Z,99559.88
2022-12-29T05:03:22.623Z,99559.38
2022-12-29T05:05:49.643Z,99549.41
2022-12-29T05:08:18.989Z,99556.09
2022-12-29T05:10:47.563Z,99540.03
2022-12-29T05:13:15.627Z,99518.28
2022-12-29T05:15:55.672Z,99504.63
2022-12-29T05:18:23.730Z,99498.44
2022-12-29T05:20:50.159Z,99542.56
2022-12-29T05:23:18.315Z,99523.03
2022-12-29T05:25:49.719Z,99543.66
2022-12-29T05:28:18.994Z,99542.97
2022-12-29T05:30:59.365Z,99544.09
2022-12-29T05:33:25.894Z,99541.78
2022-12-29T05:35:52.475Z,99549.25
2022-12-29T05:38:20.107Z,99565.72
2022-12-29T05:40:46.745Z,99549.66
2022-12-29T05:43:42.440Z,99552.09
2022-12-29T05:46:27.490Z,99542.84
2022-12-29T05:49:09.152Z,99548.66
2022-12-29T05:51:52.578Z,99553.69
2022-12-29T05:54:18.999Z,99557.69
2022-12-29T05:56:45.989Z,99558.88
2022-12-29T05:59:12.685Z,99548.03
2022-12-29T06:01:40.130Z,99553.88
2022-12-29T06:04:07.770Z,99554.38
2022-12-29T06:06:34.339Z,99547.03
2022-12-29T06:09:00.881Z,99544.72
2022-12-29T06:11:29.250Z,99530.94
2022-12-29T06:13:58.612Z,99530.72
2022-12-29T06:16:25.053Z,99520.56
2022-12-29T06:18:55.036Z,99524.31
2022-12-29T06:21:22.307Z,99515.72
2022-12-29T06:23:48.768Z,99513.53
2022-12-29T06:26:15.216Z,99500.56
2022-12-29T06:28:41.772Z,99501.97
2022-12-29T06:31:11.731Z,99496.34
2022-12-29T06:33:39.227Z,99504.47
2022-12-29T06:36:06.232Z,99501.75
2022-12-29T06:38:32.688Z,99492.53
2022-12-29T06:40:59.568Z,99493.03
2022-12-29T06:43:36.770Z,99476.94
2022-12-29T06:46:19.400Z,99496.53
2022-12-29T06:48:45.870Z,99504.09
2022-12-29T06:51:12.433Z,99494.94
2022-12-29T06:53:39.199Z,99556.50
2022-12-29T06:56:05.807Z,99608.00
2022-12-29T06:58:32.211Z,99616.91
2022-12-29T07:00:58.912Z,99606.63
2022-12-29T07:03:25.386Z,99606.09
2022-12-29T07:05:51.811Z,99605.00
2022-12-29T07:08:18.519Z,99608.44
2022-12-29T07:10:45.074Z,99624.22
2022-12-29T07:13:11.527Z,99614.56
2022-12-29T07:15:38.400Z,99612.34
2022-12-29T07:18:05.506Z,99620.47
2022-12-29T07:20:32.514Z,99628.28
2022-12-29T07:22:59.479Z,99615.56
2022-12-29T07:25:25.907Z,99616.34
2022-12-29T07:27:52.542Z,99606.03
2022-12-29T07:30:19.008Z,99594.38
2022-12-29T07:32:45.659Z,99599.22
2022-12-29T07:35:12.211Z,99600.66
2022-12-29T07:37:38.609Z,99611.81
2022-12-29T07:40:05.507Z,99628.59
2022-12-29T07:42:32.591Z,99632.47
2022-12-29T07:44:59.905Z,99635.53
2022-12-29T07:47:31.017Z,99649.28
2022-12-29T07:49:57.437Z,99648.44
2022-12-29T07:52:23.863Z,99652.75
2022-12-29T07:54:50.280Z,99648.16
2022-12-29T07:57:16.889Z,99659.28
2022-12-29T07:59:43.471Z,99657.88
2022-12-29T08:02:12.551Z,99656.75
2022-12-29T08:04:39.113Z,99662.47
2022-12-29T08:07:05.540Z,99651.66
2022-12-29T08:09:31.926Z,99663.81
2022-12-29T08:11:58.337Z,99656.22
2022-12-29T08:14:24.768Z,99657.03
2022-12-29T08:16:51.212Z,99669.69
2022-12-29T08:19:17.641Z,99666.81
2022-12-29T08:21:44.340Z,99671.38
2022-12-29T08:24:10.849Z,99670.31
2022-12-29T08:26:37.301Z,99670.81
2022-12-29T08:29:03.996Z,99674.59
2022-12-29T08:31:30.807Z,99672.22
2022-12-29T08:33:57.417Z,99667.53
2022-12-29T08:36:23.882Z,99679.59
2022-12-29T08:38:50.454Z,99668.28
2022-12-29T08:41:17.032Z,99671.69
2022-12-29T08:43:47.565Z,99674.91
2022-12-29T08:46:14.527Z,99678.69
2022-12-29T08:48:41.112Z,99683.50
2022-12-29T08:51:08.721Z,99685.34
2022-12-29T08:53:35.288Z,99683.78
2022-12-29T08:56:05.369Z,99698.97
2022-12-29T08:58:41.504Z,99683.16
2022-12-29T09:01:08.199Z,99693.53
2022-12-29T09:06:21.943Z,99703.69
2022-12-29T09:08:48.379Z,99697.47
2022-12-29T09:11:21.914Z,99693.06
2022-12-29T09:13:49.044Z,99697.69
2022-12-29T09:16:17.133Z,99695.25
2022-12-29T09:18:44.969Z,99693.75
2022-12-29T09:21:12.335Z,99695.56
2022-12-29T09:23:40.091Z,99688.78
2022-12-29T09:26:08.833Z,99685.13
2022-12-29T09:28:35.753Z,99686.50
2022-12-29T09:31:02.711Z,99690.47
2022-12-29T09:33:29.430Z,99696.41
2022-12-29T09:35:58.094Z,99687.91
2022-12-29T09:38:25.963Z,99699.25
2022-12-29T09:41:00.152Z,99687.41
2022-12-29T09:43:57.176Z,99685.41
2022-12-29T09:46:29.795Z,99694.94
2022-12-29T09:49:23.841Z,99699.72
2022-12-29T09:51:54.865Z,99692.38
2022-12-29T09:54:31.867Z,99694.22
2022-12-29T09:56:58.454Z,99700.81
2022-12-29T09:59:46.051Z,99701.09
2022-12-29T10:02:43.388Z,99697.09
2022-12-29T10:05:47.933Z,99696.19
2022-12-29T10:08:38.607Z,99693.31
2022-12-29T10:11:04.983Z,99684.03
2022-12-29T10:13:45.037Z,99687.47
2022-12-29T10:16:40.137Z,99684.97
2022-12-29T10:19:32.778Z,99688.50
2022-12-29T10:22:10.348Z,99680.41
2022-12-29T10:24:39.882Z,99697.72
2022-12-29T10:27:12.824Z,99681.41
2022-12-29T10:29:46.743Z,99685.25
2022-12-29T10:32:33.030Z,99678.19
2022-12-29T10:35:10.992Z,99670.13
2022-12-29T10:37:53.218Z,99667.75
2022-12-29T10:40:39.166Z,99671.75
2022-12-29T10:43:21.724Z,99671.16
2022-12-29T10:45:48.980Z,99669.59
2022-12-29T10:48:30.177Z,99664.56
2022-12-29T10:51:02.239Z,99671.44
2022-12-29T10:53:39.804Z,99667.50
2022-12-29T10:56:16.228Z,99675.25
2022-12-29T10:58:49.549Z,99669.31
2022-12-29T11:01:18.135Z,99671.56
2022-12-29T11:04:21.365Z,99676.50
2022-12-29T11:06:47.942Z,99684.53
2022-12-29T11:09:36.619Z,99704.84
2022-12-29T11:12:29.846Z,99680.66
2022-12-29T11:15:08.581Z,99680.38
2022-12-29T11:17:50.899Z,99669.81
2022-12-29T11:20:35.759Z,99669.38
2022-12-29T11:23:04.282Z,99669.69
2022-12-29T11:25:30.988Z,99665.25
2022-12-29T11:28:05.049Z,99673.50
2022-12-29T11:30:32.953Z,99688.91
2022-12-29T11:33:04.362Z,99687.28
2022-12-29T11:35:51.341Z,99677.22
2022-12-29T11:38:31.947Z,99679.03
2022-12-29T11:40:58.360Z,99690.09
2022-12-29T11:43:31.073Z,99690.53
2022-12-29T11:45:57.722Z,99682.78
2022-12-29T11:48:28.639Z,99677.22
2022-12-29T11:51:00.147Z,99692.03
2022-12-29T11:53:37.334Z,99677.75
2022-12-29T11:56:09.267Z,99677.13
2022-12-29T11:58:39.005Z,99683.47
2022-12-29T12:01:24.264Z,99698.59
2022-12-29T12:04:02.338Z,99692.63
2022-12-29T12:06:32.919Z,99698.06
2022-12-29T12:09:06.941Z,99693.25
2022-12-29T12:11:38.862Z,99708.34
2022-12-29T12:14:13.763Z,99708.34
2022-12-29T12:17:05.875Z,99726.16
2022-12-29T12:19:41.352Z,99713.28
2022-12-29T12:22:22.671Z,99709.81
2022-12-29T12:25:13.715Z,99707.34
2022-12-29T12:28:08.257Z,99693.13
2022-12-29T12:30:41.658Z,99704.09
2022-12-29T12:33:39.772Z,99702.38
2022-12-29T12:36:12.011Z,99704.53
2022-12-29T12:38:56.211Z,99706.06
2022-12-29T12:41:28.624Z,99707.34
2022-12-29T12:44:13.174Z,99707.66
2022-12-29T12:47:05.688Z,99713.97
2022-12-29T12:49:49.718Z,99716.47
2022-12-29T12:52:47.002Z,99710.81
2022-12-29T12:55:48.292Z,99724.13
2022-12-29T12:58:27.952Z,99726.16
2022-12-29T13:01:12.935Z,99728.19
2022-12-29T13:04:03.812Z,99721.16
2022-12-29T13:06:50.322Z,99718.97
2022-12-29T13:09:38.452Z,99731.50
2022-12-29T13:12:23.266Z,99727.34
2022-12-29T13:15:05.861Z,99750.97
2022-12-29T13:17:46.454Z,99735.00
2022-12-29T13:20:30.351Z,99749.78
2022-12-29T13:23:21.281Z,99751.22
2022-12-29T13:26:05.165Z,99754.53
2022-12-29T13:28:53.027Z,99762.00
2022-12-29T13:31:31.943Z,99763.13
2022-12-29T13:34:02.036Z,99796.13
2022-12-29T13:36:38.032Z,99782.53
2022-12-29T13:39:21.238Z,99802.38
2022-12-29T13:41:55.325Z,99792.56
2022-12-29T13:44:39.724Z,99800.78
2022-12-29T13:47:21.791Z,99807.28
2022-12-29T13:49:49.338Z,99810.50
2022-12-29T13:52:30.017Z,99806.50
2022-12-29T13:55:21.533Z,99810.31
2022-12-29T13:58:04.751Z,99823.38
2022-12-29T14:00:44.174Z,99839.91
2022-12-29T14:03:44.264Z,99837.97
2022-12-29T14:06:26.001Z,99857.66
2022-12-29T14:08:55.483Z,99846.81
2022-12-29T14:11:29.640Z,99850.34
2022-12-29T14:13:56.939Z,99856.16
2022-12-29T14:16:29.687Z,99858.94
2022-12-29T14:19:04.409Z,99862.25
2022-12-29T14:21:32.024Z,99863.84
2022-12-29T14:24:27.760Z,99866.81
2022-12-29T14:26:54.237Z,99873.63
2022-12-29T14:29:26.597Z,99882.63
2022-12-29T14:31:53.756Z,99866.19
2022-12-29T14:34:23.310Z,99879.06
2022-12-29T14:37:03.215Z,99881.97
2022-12-29T14:39:37.514Z,99889.09
2022-12-29T14:42:09.971Z,99888.78
2022-12-29T14:45:03.927Z,99896.59
2022-12-29T14:47:42.889Z,99900.00
2022-12-29T14:50:12.047Z,99903.19
2022-12-29T14:52:49.113Z,99901.63
2022-12-29T14:55:18.255Z,99900.78
2022-12-29T14:57:49.541Z,99895.47
2022-12-29T15:00:28.884Z,99915.06
2022-12-29T15:03:17.984Z,99917.19
2022-12-29T15:05:56.946Z,99921.22
2022-12-29T15:08:27.038Z,99915.78
2022-12-29T15:10:58.432Z,99917.78
2022-12-29T15:13:34.033Z,99920.50
2022-12-29T15:16:00.550Z,99921.88
2022-12-29T15:18:31.009Z,99920.06
2022-12-29T15:21:06.138Z,99925.00
2022-12-29T15:23:34.778Z,99927.59
2022-12-29T15:26:05.675Z,99938.56
2022-12-29T15:28:40.836Z,99934.19
2022-12-29T15:31:13.760Z,99939.91
2022-12-29T15:33:42.792Z,99943.19
2022-12-29T15:36:21.747Z,99940.25
2022-12-29T15:38:49.348Z,99944.75
2022-12-29T15:41:21.715Z,99956.97
2022-12-29T15:44:03.057Z,99955.06
2022-12-29T15:46:31.785Z,99952.75
2022-12-29T15:48:58.483Z,99970.06
2022-12-29T15:51:32.032Z,99960.28
2022-12-29T15:53:58.998Z,99958.13
2022-12-29T15:56:29.880Z,99958.69
2022-12-29T15:58:56.537Z,99957.06
2022-12-29T16:01:36.971Z,99962.81
2022-12-29T16:04:10.282Z,99964.13
2022-12-29T16:06:39.330Z,99972.88
2022-12-29T16:09:17.541Z,99982.59
2022-12-29T16:11:57.162Z,99977.50
2022-12-29T16:14:41.240Z,99980.97
2022-12-29T16:17:14.232Z,99977.22
2022-12-29T16:19:42.940Z,99986.44
2022-12-29T16:22:39.612Z,99994.91
2022-12-29T16:25:20.522Z,99990.53
2022-12-29T16:27:47.102Z,99985.09
2022-12-29T16:30:24.285Z,99992.38
2022-12-29T16:32:59.683Z,100000.09
2022-12-29T16:35:27.965Z,99997.09
2022-12-29T16:38:23.703Z,100007.13
2022-12-29T16:40:56.961Z,99996.59
2022-12-29T16:43:32.645Z,100002.34
2022-12-29T16:45:59.079Z,99996.41
2022-12-29T16:48:31.524Z,99993.97
2022-12-29T16:51:12.928Z,99991.03
2022-12-29T16:53:41.534Z,99986.41
2022-12-29T16:56:27.691Z,99994.25
2022-12-29T16:59:29.093Z,99989.97
2022-12-29T17:01:57.993Z,99988.72
2022-12-29T17:04:24.506Z,99983.72
2022-12-29T17:06:50.905Z,99994.63
2022-12-29T17:09:22.959Z,99991.38
2022-12-29T17:12:00.368Z,99988.03
2022-12-29T17:14:39.847Z,99986.25
2022-12-29T17:17:18.153Z,99986.00
2022-12-29T17:19:59.665Z,99983.28
2022-12-29T17:22:28.467Z,99990.88
2022-12-29T17:24:57.846Z,99994.84
2022-12-29T17:27:29.703Z,100003.53
2022-12-29T17:29:59.891Z,100005.38
2022-12-29T17:32:26.921Z,100000.09
2022-12-29T17:34:53.378Z,99994.44
2022-12-29T17:37:29.314Z,100001.13
2022-12-29T17:39:55.714Z,99993.59
2022-12-29T17:42:22.144Z,100001.00
2022-12-29T17:44:48.563Z,100003.69
2022-12-29T17:47:15.820Z,100011.13
2022-12-29T17:49:46.400Z,100027.47
2022-12-29T17:52:14.359Z,100026.56
2022-12-29T17:54:53.872Z,100031.81
2022-12-29T17:57:21.167Z,100039.78
2022-12-29T17:59:48.061Z,100039.06
2022-12-29T18:02:25.299Z,100060.72
2022-12-29T18:04:52.395Z,100087.34
2022-12-29T18:07:18.909Z,100055.44
2022-12-29T18:09:45.859Z,100045.47
2022-12-29T18:12:37.482Z,100048.16
2022-12-29T18:15:04.755Z,100056.56
2022-12-29T18:17:31.219Z,100049.81
2022-12-29T18:19:57.679Z,100039.53
2022-12-29T18:22:25.652Z,100031.72
2022-12-29T18:24:52.155Z,100044.72
2022-12-29T18:27:19.437Z,100052.28
2022-12-29T18:29:46.842Z,100057.97
2022-12-29T18:32:14.466Z,100061.47
2022-12-29T18:34:41.865Z,100063.38
2022-12-29T18:37:09.290Z,100060.41
2022-12-29T18:39:37.055Z,100054.19
2022-12-29T18:42:07.318Z,100052.28
2022-12-29T18:44:34.629Z,100047.69
2022-12-29T18:47:01.282Z,100052.81
2022-12-29T18:49:28.104Z,100053.09
2022-12-29T18:51:54.612Z,100050.91
2022-12-29T18:54:32.918Z,100055.53
2022-12-29T18:56:59.584Z,100056.06
2022-12-29T18:59:26.063Z,100055.53
2022-12-29T19:01:53.463Z,100055.53
2022-12-29T19:04:19.879Z,100057.69
2022-12-29T19:06:46.526Z,100056.84
2022-12-29T19:09:14.014Z,100060.38
2022-12-29T19:11:40.714Z,100067.41
2022-12-29T19:14:14.411Z,100063.38
2022-12-29T19:16:41.498Z,100060.13
2022-12-29T19:19:13.697Z,100057.69
2022-12-29T19:21:40.129Z,100065.28
2022-12-29T19:24:06.811Z,100066.06
2022-12-29T19:26:36.467Z,100066.88
2022-12-29T19:29:05.075Z,100072.84
2022-12-29T19:31:31.617Z,100080.66
2022-12-29T19:33:58.907Z,100090.69
2022-12-29T19:36:25.344Z,100087.44
2022-12-29T19:38:52.220Z,100093.94
2022-12-29T19:41:18.640Z,100090.44
2022-12-29T19:43:45.308Z,100094.22
2022-12-29T19:46:16.746Z,100097.19
2022-12-29T19:48:43.350Z,100097.16
2022-12-29T19:51:13.449Z,100096.91
2022-12-29T19:53:39.855Z,100099.06
2022-12-29T19:56:08.813Z,100098.53
2022-12-29T19:58:41.531Z,100101.78
2022-12-29T20:01:13.703Z,100107.19
2022-12-29T20:03:40.438Z,100112.31
2022-12-29T20:06:08.061Z,100111.53
2022-12-29T20:08:35.585Z,100116.38
2022-12-29T20:11:14.689Z,100125.31
2022-12-29T20:13:42.595Z,100129.91
2022-12-29T20:16:15.576Z,100134.25
2022-12-29T20:18:42.736Z,100148.84
2022-12-29T20:21:13.196Z,100152.66
2022-12-29T20:23:40.638Z,100153.47
2022-12-29T20:26:09.095Z,100159.94
2022-12-29T20:28:35.608Z,100156.44
2022-12-29T20:31:16.104Z,100159.41
2022-12-29T20:33:43.298Z,100157.25
2022-12-29T20:36:15.348Z,100177.00
2022-12-29T20:38:43.191Z,100165.34
2022-12-29T20:41:09.743Z,100166.16
2022-12-29T20:43:36.172Z,100166.69
2022-12-29T20:46:02.645Z,100164.81
2022-12-29T20:48:30.253Z,100162.09
2022-12-29T20:51:00.441Z,100168.06
2022-12-29T20:53:28.907Z,100170.75
2022-12-29T20:55:59.730Z,100178.84
2022-12-29T20:58:26.260Z,100175.88
2022-12-29T21:00:53.987Z,100181.84
2022-12-29T21:03:20.770Z,100193.19
2022-12-29T21:05:47.511Z,100185.63
2022-12-29T21:08:14.010Z,100189.13
2022-12-29T21:10:40.573Z,100180.47
2022-12-29T21:13:06.967Z,100198.09
2022-12-29T21:15:33.399Z,100205.38
2022-12-29T21:17:59.863Z,100199.66
2022-12-29T21:20:32.492Z,100202.69
2022-12-29T21:23:00.754Z,100206.19
2022-12-29T21:25:37.115Z,100196.72
2022-12-29T21:28:08.634Z,100205.41
2022-12-29T21:30:35.530Z,100212.38
2022-12-29T21:33:02.554Z,100218.13
2022-12-29T21:35:29.243Z,100214.31
2022-12-29T21:37:55.785Z,100222.66
2022-12-29T21:40:22.703Z,100230.78
2022-12-29T21:42:49.530Z,100221.31
2022-12-29T21:45:25.015Z,100232.97
2022-12-29T21:48:16.831Z,100237.00
2022-12-29T21:51:04.073Z,100226.19
2022-12-29T21:53:39.458Z,100244.31
2022-12-29T21:56:18.184Z,100240.81
2022-12-29T21:59:10.064Z,100237.25
2022-12-29T22:01:56.745Z,100244.31
2022-12-29T22:04:43.681Z,100253.50
2022-12-29T22:07:31.118Z,100253.72
2022-12-29T22:10:16.545Z,100260.50
2022-12-29T22:12:59.951Z,100251.88
2022-12-29T22:15:28.889Z,100249.97
2022-12-29T22:17:55.678Z,100251.00
2022-12-29T22:20:25.893Z,100259.69
2022-12-29T22:22:53.054Z,100253.47
2022-12-29T22:25:19.807Z,100259.69
2022-12-29T22:27:46.758Z,100265.38
2022-12-29T22:30:13.960Z,100273.47
2022-12-29T22:32:41.093Z,100287.25
2022-12-29T22:35:08.665Z,100280.22
2022-12-29T22:37:35.934Z,100288.31
2022-12-29T22:40:03.216Z,100285.09
2022-12-29T22:42:29.849Z,100274.81
2022-12-29T22:44:56.413Z,100279.16
2022-12-29T22:47:22.870Z,100287.81
2022-12-29T22:49:49.404Z,100282.41
2022-12-29T22:52:15.856Z,100290.78
2022-12-29T22:54:42.245Z,100287.03
2022-12-29T22:57:08.719Z,100299.16
2022-12-29T22:59:35.198Z,100288.88
2022-12-29T23:02:02.069Z,100288.03
2022-12-29T23:05:02.395Z,100286.16
2022-12-29T23:07:15.443Z,100287.00
2022-12-29T23:09:42.163Z,100291.31
2022-12-29T23:12:08.697Z,100292.66
2022-12-29T23:14:35.105Z,100300.53
2022-12-29T23:17:01.543Z,100301.03
2022-12-29T23:19:27.981Z,100304.28
2022-12-29T23:21:54.390Z,100312.13
2022-12-29T23:24:20.895Z,100312.72
2022-12-29T23:26:48.171Z,100308.13
2022-12-29T23:29:18.729Z,100311.06
2022-12-29T23:31:46.783Z,100307.75
2022-12-29T23:34:15.518Z,100306.22
2022-12-29T23:36:42.638Z,100309.41
2022-12-29T23:39:19.746Z,100307.53
2022-12-29T23:41:46.255Z,100309.69
2022-12-29T23:44:12.807Z,100318.34
2022-12-29T23:46:40.792Z,100322.69
2022-12-29T23:49:08.768Z,100323.50
2022-12-29T23:51:35.292Z,100336.75
2022-12-29T23:54:02.040Z,100343.44
2022-12-29T23:56:28.580Z,100348.06
2022-12-29T23:58:55.194Z,100345.13
